Date,TemperatureHighF,TemperatureAvgF,TemperatureLowF,DewpointHighF,DewpointAvgF,DewpointLowF,HumidityHigh,HumidityAvg,HumidityLow,PressureMaxIn,PressureMinIn,WindSpeedMaxMPH,WindSpeedAvgMPH,GustSpeedMaxMPH,PrecipitationSumIn
2013-1-7,31,21,13,16,12,8,81,67,49,30.40,30.35,0,0,0,0.00
2013-1-8,49,29,11,29,21,6,86,72,46,30.37,30.27,9,1,14,0.00
2013-1-9,45,27,16,34,21,12,88,79,49,30.39,30.02,8,0,13,0.00
2013-1-10,46,38,25,27,23,18,76,55,40,30.53,30.06,12,2,27,0.00
2013-1-11,40,31,20,32,24,16,86,76,57,30.53,30.20,3,0,5,0.11
2013-1-12,42,37,34,38,33,30,91,86,84,30.22,30.12,2,0,2,0.05
2013-1-13,50,44,36,45,40,32,91,87,84,30.15,30.00,5,1,9,0.01
2013-1-14,58,49,39,49,39,25,88,70,36,30.26,29.87,6,1,11,0.00
2013-1-15,42,35,28,26,23,20,76,62,49,30.32,30.22,5,0,9,0.00
2013-1-16,33,31,28,28,25,21,83,79,62,30.24,29.82,4,0,7,0.00
2013-1-17,42,34,26,31,23,11,84,65,45,30.09,29.83,10,1,14,0.21
2013-1-18,29,21,14,12,-4,-14,53,33,22,30.44,30.04,8,1,14,0.00
2013-1-19,47,34,19,27,18,0,76,54,38,30.35,29.88,9,1,18,0.05
2013-1-20,53,39,27,32,22,1,76,51,24,29.93,29.56,13,1,23,0.00
2013-1-21,30,23,19,15,6,-3,76,49,26,30.09,29.79,5,0,11,0.00
2013-1-22,24,18,9,15,-1,-14,77,45,22,30.08,29.75,7,0,18,0.00
2013-1-23,16,9,4,-4,-14,-21,50,33,23,30.14,30.06,8,0,18,0.00
2013-1-24,22,10,0,-9,-16,-21,48,30,21,30.23,30.07,6,0,18,0.00
2013-1-25,24,15,7,7,-13,-22,67,28,21,30.31,30.05,3,0,8,0.00
2013-1-26,25,14,2,7,-5,-16,69,45,21,30.24,29.99,6,0,15,0.00
2013-1-27,34,18,8,1,-4,-8,56,38,21,30.46,30.24,5,0,14,0.00
2013-1-28,33,22,11,20,9,-2,76,58,26,30.44,30.00,1,0,3,0.00
2013-1-29,35,29,25,28,23,18,83,76,69,30.19,30.00,0,0,1,0.14
2013-1-30,59,47,32,54,43,28,91,85,82,30.14,29.44,8,0,17,0.13
2013-1-31,61,47,30,56,34,10,85,63,31,29.60,28.99,14,2,27,0.46
2013-2-1,34,27,20,17,4,-4,62,38,24,30.08,29.60,6,0,18,0.00
2013-2-2,33,23,16,10,1,-8,56,37,24,30.24,30.03,2,0,11,0.00
2013-2-3,28,23,15,17,14,8,77,66,55,30.05,29.72,0,0,4,0.00
2013-2-4,33,22,12,14,6,-4,77,51,26,29.94,29.72,11,0,16,0.00
2013-2-5,30,24,20,17,10,3,74,54,43,30.01,29.92,1,0,4,0.00
2013-2-6,41,29,20,24,12,-6,78,53,25,30.29,29.91,4,0,16,0.02
2013-2-7,32,23,12,5,-2,-27,62,35,22,30.50,30.29,2,0,7,0.00
2013-2-8,31,24,17,23,14,4,77,67,44,30.46,29.60,11,1,22,0.00
2013-2-9,24,18,14,13,6,-6,76,59,40,30.21,29.58,14,1,25,0.00
2013-2-10,44,17,-5,9,-3,-15,67,44,21,30.38,30.20,2,0,8,0.01
2013-2-11,44,29,6,39,23,-3,92,78,61,30.34,29.61,0,0,3,0.19
2013-2-12,45,38,31,37,26,20,90,62,47,29.89,29.62,7,0,18,0.01
2013-2-13,47,33,23,24,20,14,73,58,42,29.87,29.69,2,0,6,0.00
2013-2-14,50,33,22,22,18,14,76,56,31,29.98,29.71,2,0,8,0.00
2013-2-15,56,34,18,33,24,11,84,68,41,29.99,29.90,3,0,11,0.00
2013-2-16,40,34,27,29,23,13,85,67,46,29.94,29.70,6,0,11,0.02
2013-2-17,28,21,15,15,2,-10,70,44,26,29.72,29.43,11,1,23,0.00
2013-2-18,33,21,12,-1,-7,-10,41,29,21,30.16,29.72,9,0,18,0.00
2013-2-19,49,32,15,38,20,-2,90,61,41,30.17,29.59,4,0,13,0.18
2013-2-20,38,31,24,35,14,2,90,51,29,29.80,29.55,8,0,22,0.01
2013-2-21,35,27,23,11,8,4,55,45,33,30.21,29.78,8,0,21,0.00
2013-2-22,43,30,14,20,15,7,76,55,33,30.36,30.21,4,0,11,0.00
2013-2-23,38,33,26,28,24,18,85,72,61,30.32,29.89,2,0,5,0.00
2013-2-24,36,33,31,30,28,27,85,83,78,29.89,29.70,3,0,10,0.47
2013-2-25,44,30,22,34,25,18,86,81,65,30.22,29.89,0,0,3,0.28
2013-2-26,46,34,31,34,27,21,85,77,46,30.32,30.14,1,0,4,0.08
2013-2-27,42,37,32,37,32,26,87,82,68,30.14,29.59,10,0,18,1.06
2013-2-28,50,36,28,37,30,22,83,78,63,29.65,29.54,0,0,1,0.02
2013-3-1,34,33,31,29,28,27,84,83,82,29.54,29.54,0,0,0,0.00
2013-3-2,42,35,33,26,23,21,64,61,51,29.69,29.63,2,0,8,0.00
2013-3-3,44,34,31,29,23,19,77,64,50,29.66,29.57,2,0,8,0.00
2013-3-4,41,33,27,23,19,13,66,56,44,29.76,29.61,5,0,16,0.00
2013-3-5,49,36,29,27,22,18,74,59,44,30.07,29.76,2,0,10,0.00
2013-3-6,39,35,33,31,28,26,80,75,63,30.08,30.03,10,1,20,0.15
2013-3-7,35,32,29,27,25,23,80,75,66,30.05,29.98,8,1,20,0.05
2013-3-8,39,33,29,29,24,17,80,72,45,30.15,29.94,7,0,20,0.05
2013-3-9,54,38,21,27,18,13,78,48,21,30.35,30.14,3,0,15,0.06
2013-3-10,55,33,15,31,22,8,84,65,37,30.40,30.29,0,0,1,0.00
2013-3-11,57,42,34,36,31,26,84,66,42,30.32,30.14,2,0,9,0.00
2013-3-12,56,46,35,48,41,30,87,81,69,30.14,29.72,2,0,12,0.40
2013-3-13,54,42,27,41,27,-39,84,58,28,29.80,29.72,3,0,18,0.00
2013-3-14,39,30,22,23,9,-3,71,43,28,29.85,29.73,7,0,18,0.00
2013-3-15,44,30,18,25,10,-1,75,45,21,29.88,29.65,4,0,15,0.00
2013-3-16,43,34,26,24,10,1,73,40,22,29.87,29.69,2,0,8,0.00
2013-3-17,40,29,18,15,6,-2,74,40,21,30.30,29.86,6,0,14,0.00
2013-3-18,44,28,14,22,3,-8,76,38,21,30.45,30.20,3,0,8,0.00
2013-3-19,35,31,27,29,25,20,82,79,71,30.20,29.62,5,0,11,0.27
2013-3-20,43,31,22,24,16,9,81,56,33,29.81,29.70,4,0,17,0.18
2013-3-21,41,28,16,24,16,5,79,63,27,29.83,29.62,0,0,2,0.01
2013-3-22,46,32,25,20,15,9,57,48,28,29.76,29.62,4,0,15,0.00
2013-3-23,46,35,26,21,16,11,67,48,30,29.82,29.68,8,0,17,0.00
2013-3-24,52,37,29,22,19,14,73,49,28,29.83,29.73,4,0,17,0.00
2013-3-25,45,35,27,30,24,18,74,64,55,29.77,29.51,7,0,15,0.00
2013-3-26,53,40,32,29,22,14,62,49,27,29.80,29.54,4,0,10,0.00
2013-3-27,56,39,22,29,20,15,77,50,24,29.88,29.76,5,0,18,0.00
2013-3-28,53,42,34,33,29,23,79,60,36,30.03,29.88,4,0,8,0.01
2013-3-29,62,44,26,38,27,20,85,55,26,30.07,29.98,2,0,9,0.00
2013-3-30,61,45,30,31,22,14,71,45,20,30.11,30.01,5,0,14,0.00
2013-3-31,61,43,23,40,26,17,88,56,23,30.12,29.72,8,0,15,0.07
2013-4-1,65,46,34,46,34,4,94,68,25,29.81,29.53,11,0,21,0.09
2013-4-2,44,34,28,18,12,2,58,40,23,29.96,29.81,12,0,19,0.00
2013-4-3,50,36,29,17,11,5,54,38,21,30.18,29.95,11,0,28,0.00
2013-4-4,61,41,26,28,17,7,67,40,20,30.31,30.06,3,0,10,0.00
2013-4-5,66,48,35,32,24,15,74,44,18,30.06,29.66,6,0,20,0.00
2013-4-6,51,37,26,28,11,0,66,36,20,30.34,29.91,8,0,18,0.00
2013-4-7,59,41,22,40,26,11,82,58,23,30.34,30.01,8,0,21,0.00
2013-4-8,75,53,37,43,39,30,98,64,24,30.09,29.96,3,0,8,0.00
2013-4-9,74,57,45,53,44,39,97,65,35,30.09,29.87,7,0,14,0.05
2013-4-10,70,55,44,52,47,43,98,77,49,30.03,29.86,1,0,3,0.17
2013-4-11,61,48,38,47,39,25,99,72,37,30.15,29.84,1,0,6,0.05
2013-4-12,39,37,36,36,34,32,95,89,76,30.16,29.79,7,0,16,0.59
2013-4-13,58,44,34,41,35,32,93,73,44,29.94,29.76,3,0,8,0.07
2013-4-14,57,44,32,46,31,23,96,64,32,30.23,29.92,6,0,13,0.00
2013-4-15,66,44,26,37,30,22,91,62,28,30.40,30.23,2,0,9,0.00
2013-4-16,69,51,32,51,41,30,99,72,44,30.40,30.09,8,0,18,0.00
2013-4-17,71,59,43,53,35,22,92,48,17,30.36,30.08,6,0,12,0.00
2013-4-18,68,51,33,45,34,28,87,56,31,30.42,30.15,4,0,11,0.00
2013-4-19,78,62,52,63,57,45,98,84,58,30.15,29.68,7,0,18,0.00
2013-4-20,65,54,42,62,40,22,96,64,32,30.25,29.63,5,0,15,0.39
2013-4-21,60,43,33,30,21,14,82,44,21,30.67,30.25,10,0,16,0.00
2013-4-22,56,42,28,36,29,21,96,65,31,30.73,30.58,7,0,14,0.00
2013-4-23,41,39,37,40,36,29,98,91,74,30.58,30.11,5,0,10,0.02
2013-4-24,81,56,40,50,43,34,98,69,22,30.11,29.82,7,0,13,0.01
2013-4-25,70,54,38,52,35,20,94,55,20,30.29,29.86,4,0,14,0.01
2013-4-26,68,48,30,41,34,27,95,62,31,30.43,30.29,2,0,8,0.00
2013-4-27,72,51,31,49,35,28,99,62,21,30.43,30.29,1,0,9,0.00
2013-4-28,78,54,33,48,34,27,99,55,21,30.35,30.22,3,0,12,0.00
2013-4-29,75,57,42,48,36,23,94,51,23,30.29,30.20,97,0,99,0.00
2013-4-30,79,58,42,40,29,18,74,38,14,30.38,30.27,1,0,4,0.00
2013-5-1,78,55,33,46,34,24,98,52,21,30.49,30.38,2,0,6,0.00
2013-5-2,85,58,38,54,40,34,99,60,21,30.51,30.33,6,0,16,0.00
2013-5-3,68,51,38,47,41,36,96,71,45,30.53,30.40,4,0,9,0.00
2013-5-4,69,51,35,53,38,24,99,67,29,30.40,30.30,3,0,13,0.00
2013-5-5,72,49,31,46,38,30,99,70,36,30.34,30.24,2,0,7,0.00
2013-5-6,82,57,35,52,44,34,99,68,26,30.29,30.14,1,0,9,0.00
2013-5-7,86,63,40,60,51,40,99,70,35,30.20,30.11,2,0,9,0.00
2013-5-8,74,61,50,65,58,50,99,90,66,30.22,30.06,4,0,13,0.66
2013-5-9,74,61,55,65,59,54,99,93,62,30.07,29.90,0,0,1,0.22
2013-5-10,87,68,50,63,55,50,99,68,34,29.98,29.92,1,0,6,0.00
2013-5-11,70,63,58,62,59,54,96,86,72,29.95,29.72,5,0,13,0.09
2013-5-12,78,61,46,60,51,32,96,72,41,29.85,29.60,5,0,18,0.14
2013-5-13,64,50,37,37,31,24,87,50,27,30.05,29.85,4,0,11,0.01
2013-5-14,60,49,37,38,31,25,89,53,31,30.07,30.00,2,0,7,0.00
2013-5-15,70,51,30,53,41,30,99,74,33,30.08,29.70,3,0,10,0.04
2013-5-16,84,68,50,52,43,32,96,47,18,29.83,29.67,4,0,14,0.00
2013-5-17,75,59,44,47,41,33,95,56,26,30.25,29.83,3,0,14,0.00
2013-5-18,77,59,38,54,44,34,99,63,27,30.32,30.24,1,0,6,0.00
2013-5-19,77,58,43,58,50,43,99,78,45,30.35,30.22,1,0,5,0.07
2013-5-20,86,65,55,66,60,55,99,85,49,30.23,29.95,2,0,9,0.01
2013-5-21,93,68,51,70,60,50,99,81,43,30.05,29.86,4,0,11,0.31
2013-5-22,86,62,50,70,58,50,99,86,60,30.10,29.88,2,0,8,0.14
2013-5-23,74,66,56,69,63,54,99,91,81,29.95,29.83,2,0,8,0.14
2013-5-24,76,63,48,67,59,47,98,88,66,29.87,29.68,4,0,10,0.39
2013-5-25,52,47,41,50,45,38,99,94,86,29.87,29.75,7,0,14,0.35
2013-5-26,62,49,40,44,39,36,94,70,45,30.13,29.75,8,0,17,0.02
2013-5-27,77,57,35,48,39,29,99,59,21,30.19,30.09,4,0,12,0.00
2013-5-28,82,61,39,55,45,38,99,63,24,30.25,30.17,0,0,4,0.00
2013-5-29,84,65,58,69,61,55,99,88,57,30.21,30.01,3,0,8,1.00
2013-5-30,92,75,59,72,66,58,99,76,46,30.13,30.05,4,0,11,0.00
2013-5-31,101,80,60,76,65,60,99,66,36,30.14,29.99,1,0,4,0.00
2013-6-1,97,79,60,71,66,60,99,68,40,30.03,29.91,2,0,6,0.00
2013-6-2,93,78,67,69,66,63,91,70,43,29.94,29.78,4,0,12,0.00
2013-6-3,87,70,61,70,63,44,96,79,53,29.89,29.80,4,0,10,0.09
2013-6-4,76,62,50,51,45,39,93,54,35,30.13,29.88,9,0,17,0.00
2013-6-5,82,63,45,58,48,40,99,64,30,30.22,30.12,1,0,4,0.00
2013-6-6,79,63,50,58,51,48,97,68,42,30.21,30.13,2,0,8,0.02
2013-6-7,60,56,53,58,55,52,98,96,94,30.14,29.83,3,0,8,1.80
2013-6-8,82,63,52,66,57,52,98,83,54,30.05,29.65,4,0,11,1.00
2013-6-9,85,67,52,67,55,51,99,70,42,30.21,30.04,3,0,10,0.00
2013-6-10,76,62,51,63,58,51,99,88,55,30.22,30.02,1,0,5,0.86
2013-6-11,66,59,56,60,57,56,99,93,79,30.02,29.59,2,0,5,1.17
2013-6-12,74,63,54,59,55,51,99,76,52,29.86,29.59,8,0,21,0.00
2013-6-13,64,55,47,60,53,47,99,93,78,29.85,29.67,2,0,7,1.07
2013-6-14,78,60,51,59,53,51,99,82,48,29.81,29.65,4,0,8,1.00
2013-6-15,85,66,52,57,50,40,98,61,25,29.99,29.81,2,0,10,0.00
2013-6-16,80,66,47,64,56,47,99,74,42,29.99,29.75,2,0,8,0.00
2013-6-17,91,71,55,68,60,55,99,74,38,29.95,29.82,9,0,21,0.17
2013-6-18,83,64,57,68,61,57,99,90,58,29.97,29.89,4,0,11,1.13
2013-6-19,80,64,51,58,53,43,99,71,36,30.19,29.93,1,0,8,0.21
2013-6-20,86,67,46,61,52,44,99,65,28,30.29,30.19,3,0,4,0.01
2013-6-21,90,72,54,66,60,53,97,69,42,30.29,30.23,2,0,7,0.00
2013-6-22,90,73,58,66,60,56,97,67,38,30.27,30.16,2,0,9,0.00
2013-6-23,94,78,61,72,65,56,86,67,48,30.21,30.05,2,0,7,0.00
2013-6-24,97,80,69,73,70,65,97,73,46,30.08,29.93,9,0,18,0.12
2013-6-25,98,79,66,73,68,64,99,74,43,29.99,29.79,3,0,8,0.07
2013-6-26,91,77,67,76,69,65,99,78,53,29.90,29.78,2,0,9,0.01
2013-6-27,73,68,64,69,66,63,99,92,80,29.89,29.78,1,0,4,0.04
2013-6-28,87,72,63,76,68,62,99,88,66,29.78,29.53,2,0,10,0.39
2013-6-29,90,76,70,72,68,66,95,79,52,29.77,29.55,3,0,8,0.00
2013-6-30,93,78,68,73,69,66,97,77,49,29.98,29.77,1,0,6,0.00
2013-7-1,87,76,72,75,72,69,96,86,69,30.12,29.98,2,0,8,0.02
2013-7-2,89,77,69,76,71,64,93,82,62,30.23,30.11,1,0,4,0.00
2013-7-3,93,77,65,74,69,62,95,79,53,30.25,30.19,2,0,7,0.00
2013-7-4,96,83,71,76,72,70,97,72,49,30.25,30.15,2,0,7,0.00
2013-7-5,99,85,73,75,72,69,93,69,45,30.21,30.09,2,0,7,0.00
2013-7-6,95,83,71,77,71,67,97,70,47,30.14,30.03,4,0,12,0.00
2013-7-7,99,79,68,78,71,67,98,79,45,30.08,29.96,1,0,5,0.11
2013-7-8,96,80,69,79,70,65,99,76,44,30.11,29.96,2,0,8,0.00
2013-7-9,78,71,66,71,67,65,97,88,77,30.14,30.08,0,0,3,0.00
2013-7-10,91,76,68,76,71,65,97,86,59,30.11,29.84,2,0,8,0.15
2013-7-11,88,76,68,76,72,67,99,87,63,29.98,29.82,0,0,2,0.11
2013-7-12,79,71,65,68,62,58,96,73,62,30.23,29.97,3,0,8,0.00
2013-7-13,78,70,64,73,66,59,96,88,80,30.34,30.23,0,0,2,0.05
2013-7-14,94,81,70,78,72,67,98,76,49,30.34,30.24,2,0,9,0.00
2013-7-15,97,82,69,78,71,66,98,73,42,30.26,30.15,2,0,6,0.00
2013-7-16,96,81,66,75,68,64,99,69,40,30.22,30.15,3,0,10,0.00
2013-7-17,99,84,68,76,70,66,98,69,39,30.22,30.06,1,0,3,0.00
2013-7-18,102,86,74,76,72,68,94,68,39,30.06,29.97,3,0,5,0.00
2013-7-19,100,86,72,78,74,70,98,71,43,30.00,29.78,3,0,11,0.00
2013-7-20,98,83,69,80,73,66,96,74,45,29.87,29.72,6,0,11,0.22
2013-7-21,93,77,66,69,66,60,96,71,42,30.03,29.87,1,0,2,0.00
2013-7-22,90,74,64,72,67,63,99,81,48,30.05,29.92,52,0,6,0.00
2013-7-23,91,74,69,80,71,67,98,92,66,29.92,29.57,2,0,10,1.81
2013-7-24,89,76,67,78,67,57,99,74,46,30.00,29.62,4,0,8,0.01
2013-7-25,67,60,58,59,55,48,97,83,67,30.14,29.99,2,0,8,0.17
2013-7-26,76,65,60,68,62,58,98,90,72,30.09,29.98,2,0,8,0.41
2013-7-27,90,71,56,69,63,56,99,80,44,30.10,30.03,0,0,1,0.00
2013-7-28,92,74,61,71,66,26,99,80,46,30.06,29.99,0,0,2,0.00
2013-7-29,90,74,64,75,68,63,99,84,51,30.09,30.00,2,0,7,0.11
2013-7-30,86,71,58,64,59,54,98,71,43,30.15,30.08,2,0,8,0.00
2013-7-31,90,71,57,66,60,52,99,73,38,30.18,30.08,1,0,4,0.00
2013-8-1,84,69,58,70,63,58,99,84,58,30.09,29.91,1,0,6,0.08
2013-8-2,87,72,64,72,64,58,99,78,45,29.93,29.84,4,0,11,0.59
2013-8-3,85,70,61,67,62,58,99,80,47,29.92,29.83,2,0,8,0.01
2013-8-4,85,68,54,65,57,52,99,71,40,29.94,29.82,4,0,11,0.00
2013-8-5,80,64,51,56,49,40,99,65,28,30.09,29.94,4,0,11,0.00
2013-8-6,88,66,47,64,53,46,99,69,33,30.19,30.08,0,0,2,0.00
2013-8-7,89,68,52,67,56,49,99,70,36,30.21,30.14,5,0,12,0.00
2013-8-8,85,72,65,73,68,59,98,85,66,30.16,30.04,0,0,2,0.11
2013-8-9,77,73,69,76,71,68,99,94,88,30.06,29.79,2,0,8,1.58
2013-8-10,87,72,58,70,62,53,99,72,37,30.06,29.84,3,0,10,0.00
2013-8-11,87,67,50,67,55,50,99,71,38,30.12,30.04,1,0,4,0.00
2013-8-12,90,70,56,69,59,53,99,73,36,30.07,29.96,1,0,4,0.00
2013-8-13,81,68,61,70,64,60,99,89,63,29.97,29.72,2,0,8,0.02
2013-8-14,77,66,56,66,54,48,99,67,46,30.02,29.71,5,0,16,0.00
2013-8-15,82,64,48,64,52,48,99,72,36,30.16,30.01,3,0,9,0.00
2013-8-16,86,65,49,63,54,49,99,74,36,30.24,30.15,2,0,7,0.00
2013-8-17,87,67,51,66,58,50,99,77,38,30.31,30.23,0,0,2,0.00
2013-8-18,84,68,55,67,61,54,99,81,47,30.31,30.13,0,0,0,0.00
2013-8-19,84,70,56,69,60,56,99,75,46,30.13,30.00,2,0,8,0.00
2013-8-20,92,72,58,70,62,57,99,74,39,30.14,30.03,1,0,4,0.00
2013-8-21,93,73,57,71,63,57,99,75,39,30.19,30.07,2,0,8,0.00
2013-8-22,87,71,59,75,67,59,99,87,61,30.09,29.87,1,0,4,0.00
2013-8-23,83,71,56,69,60,53,97,71,41,30.16,29.87,3,0,8,0.00
2013-8-24,83,64,50,59,50,39,99,65,24,30.38,30.16,2,0,8,0.00
2013-8-25,90,67,47,64,53,46,99,68,28,30.40,30.23,0,0,3,0.00
2013-8-26,82,71,62,67,62,58,93,76,57,30.23,29.92,2,0,8,0.02
2013-8-27,89,74,66,73,68,65,99,85,50,29.94,29.86,0,0,3,0.25
2013-8-28,92,74,62,76,66,61,99,79,45,30.00,29.88,3,0,5,0.00
2013-8-29,69,65,60,66,62,58,98,92,87,30.11,29.97,1,0,7,0.04
2013-8-30,91,71,60,70,64,58,97,81,46,30.07,29.87,2,0,7,0.00
2013-8-31,81,74,66,74,71,65,99,91,78,29.88,29.83,0,0,1,0.12
2013-9-1,83,72,68,78,71,67,99,95,82,29.92,29.83,1,0,11,0.66
2013-9-2,82,74,70,77,72,69,99,92,82,29.90,29.75,1,0,4,0.18
2013-9-3,83,71,60,74,67,57,99,89,65,29.87,29.74,0,0,3,0.04
2013-9-4,85,67,56,63,58,54,99,76,41,29.97,29.85,2,0,8,0.01
2013-9-5,74,61,46,65,54,40,99,81,35,30.18,29.90,4,0,8,0.02
2013-9-6,77,55,40,57,44,37,99,73,31,30.26,30.12,0,0,2,0.00
2013-9-7,86,62,44,59,50,43,99,72,29,30.13,29.90,1,0,6,0.00
2013-9-8,79,64,45,63,53,42,99,72,35,30.13,29.79,7,0,13,0.00
2013-9-9,75,55,38,55,46,38,99,74,40,30.25,30.13,0,0,3,0.00
2013-9-10,78,66,53,71,63,50,98,90,80,30.18,30.06,24,0,2,0.05
2013-9-11,99,79,65,78,71,65,99,79,43,30.11,29.99,5,0,13,0.00
2013-9-12,90,75,66,75,70,65,99,84,55,30.02,29.72,2,0,8,1.15
2013-9-13,85,69,59,69,64,54,99,86,55,29.81,29.61,2,0,7,0.04
2013-9-14,73,60,50,56,52,49,99,76,53,30.09,29.81,2,0,8,0.00
2013-9-15,78,57,43,59,49,42,99,78,35,30.19,30.08,2,0,7,0.00
2013-9-16,73,57,47,58,51,38,98,81,57,30.28,30.05,2,0,11,0.01
2013-9-17,68,49,36,47,39,34,99,71,36,30.44,30.27,3,0,9,0.00
2013-9-18,80,54,36,56,44,35,99,75,28,30.35,30.17,1,0,6,0.00
2013-9-19,87,59,42,58,50,42,99,77,33,30.18,30.06,0,0,1,0.00
2013-9-20,88,61,43,60,52,42,99,78,33,30.11,30.02,0,0,2,0.00
2013-9-21,77,63,48,66,59,47,99,86,63,30.06,29.75,3,0,9,0.00
2013-9-22,74,63,49,67,56,45,99,78,49,29.87,29.63,8,0,14,0.52
2013-9-23,68,53,42,47,42,39,98,70,45,30.04,29.87,4,0,12,0.00
2013-9-24,73,52,37,46,42,36,99,74,33,30.04,29.84,2,0,12,0.00
2013-9-25,75,54,39,55,47,39,99,79,46,30.01,29.89,3,0,8,0.00
2013-9-26,71,57,48,52,49,45,99,78,47,30.15,30.01,0,0,2,0.00
2013-9-27,67,57,45,54,52,44,99,84,63,30.29,30.14,2,0,5,0.00
2013-9-28,80,55,40,60,49,40,99,83,45,30.34,30.27,0,0,6,0.00
2013-9-29,74,52,40,57,45,39,99,82,34,30.29,30.13,0,0,2,0.00
2013-9-30,75,53,40,54,47,40,99,84,42,30.14,29.99,0,0,2,0.00
2013-10-1,82,58,40,62,50,39,99,80,37,29.99,29.88,2,0,9,0.00
2013-10-2,82,62,47,65,56,46,99,81,51,30.00,29.88,4,0,12,0.00
2013-10-3,81,58,44,63,50,43,99,79,29,30.12,30.00,0,0,2,0.00
2013-10-4,67,55,47,62,53,46,99,94,74,30.13,30.06,0,0,1,0.39
2013-10-5,72,62,56,62,59,56,99,89,70,30.15,30.07,0,0,0,0.04
2013-10-6,60,56,54,58,56,54,99,97,92,30.24,30.13,6,0,52,0.46
2013-10-7,79,64,55,71,62,54,99,91,71,30.15,29.83,8,0,14,0.22
2013-10-8,67,54,41,54,45,38,99,75,38,30.40,29.94,2,0,10,0.00
2013-10-9,64,48,37,47,42,36,99,83,51,30.48,30.38,2,0,7,0.00
2013-10-10,64,50,38,54,47,38,99,90,71,30.38,30.19,0,0,2,0.00
2013-10-11,73,56,45,57,50,44,99,83,49,30.19,30.10,2,0,5,0.00
2013-10-12,61,52,41,57,50,41,99,93,84,30.40,30.16,2,0,6,0.00
2013-10-13,61,51,37,50,47,36,99,86,65,30.45,30.38,2,0,6,0.00
2013-10-14,67,48,36,51,43,35,99,85,45,30.42,30.26,0,0,2,0.01
2013-10-15,69,56,44,57,49,44,98,80,51,30.28,30.18,0,0,2,0.00
2013-10-16,61,53,44,53,50,43,98,89,70,30.20,29.94,0,0,2,0.00
2013-10-17,75,59,48,61,54,47,98,85,57,29.94,29.75,2,0,6,0.02
2013-10-18,69,58,40,60,49,39,96,74,45,29.94,29.64,4,0,14,0.01
2013-10-19,67,50,34,53,41,32,99,74,40,29.99,29.77,2,0,4,0.00
2013-10-20,64,50,34,50,38,29,97,69,32,30.05,29.72,97,0,14,0.02
2013-10-21,70,50,32,47,38,31,98,68,34,30.13,30.01,2,0,6,0.00
2013-10-22,66,49,36,55,43,35,99,82,52,30.01,29.73,2,0,7,0.01
2013-10-23,52,43,33,42,34,30,98,74,46,29.82,29.59,2,0,6,0.00
2013-10-24,55,42,30,38,28,18,95,61,28,29.90,29.66,5,0,16,0.00
2013-10-25,50,38,26,38,26,22,93,66,42,30.17,29.90,3,0,10,0.00
2013-10-26,57,40,24,38,27,20,95,64,27,30.17,29.88,4,0,12,0.00
2013-10-27,56,45,32,39,32,26,90,64,35,30.08,29.81,4,0,11,0.02
2013-10-28,59,41,26,39,29,22,95,65,37,30.35,30.08,4,0,13,0.00
2013-10-29,52,34,24,28,20,11,86,59,24,30.45,30.35,1,0,5,0.00
2013-10-30,58,39,26,41,32,19,93,75,54,30.37,30.19,2,0,8,0.00
2013-10-31,62,47,29,59,44,27,98,90,76,30.24,29.80,3,0,9,0.05
2013-11-1,69,63,51,62,56,49,92,78,65,29.80,29.49,9,0,21,0.08
2013-11-2,68,52,40,51,43,37,97,75,35,29.75,29.61,2,0,6,0.01
2013-11-3,50,41,31,44,26,9,96,59,23,30.41,29.75,2,0,8,0.00
2013-11-4,45,31,21,16,12,7,79,48,25,30.70,30.42,1,0,5,0.00
2013-11-5,54,36,20,31,25,15,88,67,37,30.70,30.51,1,0,2,0.00
2013-11-6,63,49,34,48,39,29,91,72,45,30.52,30.05,3,0,10,0.00
2013-11-7,65,53,34,56,47,29,90,80,68,30.06,29.69,4,0,11,0.12
2013-11-8,49,37,25,35,24,17,86,62,40,30.10,29.84,6,0,13,0.00
2013-11-9,48,33,20,28,22,17,87,65,35,30.22,30.02,4,0,8,0.00
2013-11-10,56,44,36,44,34,26,96,69,46,30.02,29.76,4,0,13,0.04
2013-11-11,53,45,37,31,26,21,61,49,32,30.11,29.88,4,0,17,0.00
2013-11-12,50,35,24,38,22,9,86,60,45,30.19,29.89,4,0,13,0.06
2013-11-13,38,29,21,15,9,3,65,45,25,30.29,29.90,4,0,11,0.00
2013-11-14,54,38,27,21,17,11,59,44,25,30.16,30.05,2,0,11,0.00
2013-11-15,63,40,23,28,20,13,80,49,19,30.20,30.11,2,0,9,0.00
2013-11-16,63,42,27,34,27,20,86,61,23,30.32,30.18,1,0,3,0.00
2013-11-17,58,42,27,50,37,22,94,84,62,30.31,29.84,0,0,1,0.04
2013-11-18,68,56,43,59,44,30,95,67,37,29.84,29.54,5,0,13,0.28
2013-11-19,47,39,30,32,21,13,56,47,36,30.28,29.69,5,0,15,0.00
2013-11-20,43,30,18,14,10,2,70,45,22,30.62,30.28,4,0,8,0.00
2013-11-21,51,31,15,32,18,9,84,61,28,30.62,30.37,2,0,5,0.00
2013-11-22,49,44,40,46,40,32,94,87,70,30.37,29.82,0,0,0,0.09
2013-11-23,48,39,28,46,24,10,94,56,28,29.94,29.80,6,0,14,0.01
2013-11-24,28,23,19,15,-1,-11,69,36,21,30.20,29.82,11,0,24,0.00
2013-11-25,36,24,14,15,-2,-12,50,32,21,30.36,30.19,4,0,11,0.00
2013-11-26,41,34,30,31,19,10,89,55,36,30.31,30.02,2,0,8,0.15
2013-11-27,62,48,34,59,44,28,94,88,74,30.02,29.23,5,0,19,1.51
2013-11-28,37,29,20,29,12,-2,75,49,26,30.43,29.50,9,0,21,0.00
2013-11-29,35,26,16,15,6,-3,72,44,28,30.72,30.42,2,0,6,0.00
2013-11-30,36,22,9,16,8,0,75,55,31,30.77,30.40,1,0,6,0.00
2013-12-1,35,32,28,32,27,16,89,81,62,30.40,30.01,0,0,0,0.08
2013-12-2,41,37,34,37,34,30,93,88,85,30.01,29.91,0,0,0,0.00
2013-12-3,51,37,26,38,30,21,90,78,48,29.96,29.84,2,0,5,0.00
2013-12-4,50,31,22,31,23,19,88,74,44,30.19,29.96,1,0,2,0.00
2013-12-5,55,38,26,53,35,22,92,86,75,30.19,29.91,2,0,8,0.02
2013-12-6,55,48,33,52,43,29,91,84,65,30.14,29.85,1,0,5,0.28
2013-12-7,41,32,23,32,25,17,87,75,51,30.45,30.06,7,0,11,0.17
2013-12-8,32,26,16,19,13,10,81,59,44,30.58,30.44,0,0,2,0.00
2013-12-9,34,30,25,31,24,12,89,81,52,30.47,29.89,1,0,4,0.01
2013-12-10,33,29,21,29,23,11,89,79,54,30.00,29.78,2,0,4,0.00
2013-12-11,32,23,14,18,13,8,81,66,54,30.21,30.00,2,0,8,0.00
2013-12-12,26,20,6,16,0,-8,76,45,25,30.27,30.05,2,0,11,0.00
2013-12-13,30,21,14,15,6,0,71,53,41,30.36,29.98,4,0,11,0.00
2013-12-14,17,13,10,10,-2,-14,74,52,27,30.57,30.11,1,0,8,0.00
2013-12-15,32,22,14,23,15,8,81,75,64,30.11,29.44,2,0,8,0.00
2013-12-16,29,20,8,15,4,-3,79,51,29,30.18,29.73,4,0,11,0.00
2013-12-17,18,8,-5,10,-1,-15,74,66,51,30.25,29.93,0,0,3,0.00
2013-12-18,35,22,11,18,12,5,79,66,48,30.08,29.86,2,0,6,0.00
2013-12-19,45,29,10,24,18,3,80,64,43,30.10,29.95,8,0,18,0.08
2013-12-20,52,38,24,33,27,20,85,67,44,30.10,29.91,2,0,7,0.15
2013-12-21,56,42,30,44,36,26,91,78,62,29.96,29.86,2,0,8,0.00
2013-12-22,66,44,34,58,40,31,93,87,68,30.01,29.76,4,0,14,0.00
2013-12-23,39,34,32,37,32,30,94,89,78,30.07,29.95,1,0,4,0.58
2013-12-24,38,32,25,32,18,6,80,58,42,30.20,30.03,4,0,10,0.00
2013-12-25,25,18,11,5,-2,-9,64,42,27,30.51,30.20,2,0,9,0.00
2013-12-26,31,23,13,25,13,1,79,66,47,30.46,30.07,2,0,4,0.00
2013-12-27,38,23,10,21,12,2,79,66,44,30.27,30.18,2,0,8,0.05
2013-12-28,50,30,17,27,19,10,81,66,39,30.21,29.99,4,0,13,0.01
2013-12-29,43,33,23,36,28,18,90,82,63,30.02,29.41,4,0,11,1.11
2013-12-30,40,30,18,36,17,2,90,61,30,30.15,29.54,5,0,14,0.01
2013-12-31,27,19,11,12,4,-3,68,52,32,30.18,29.99,3,0,7,0.00
2014-1-1,30,20,11,9,2,-3,65,45,26,30.35,30.17,3,0,9,0.00
2014-1-2,20,12,1,12,2,-11,72,65,56,30.33,29.81,8,0,18,0.00